Dugway, Utah
Current Conditions -  °F | °C
As of 11:51 AM on Monday 22 Dec 2014 (Local Time) from KPVU Reporting Station
Light Rain Light Rain  
Wind Chill: 37°   Ceiling: 1500
Heat Index: 37°   Visibility: 10mi
Dew Point: 36°   Wind: 0mph
Humidity: 93%   Direction: NA
Pressure: 30.02"   Gusts: NA
Location:  40.23°N, 112.75°W
Report Text: KPVU 221851Z 00000KT 10SM -RA BR FEW005 BKN015 OVC032 03/02 A3002
Loading
Personal Weather Stations






























Interactive Weather Map New forecast layout! Learn more

10-Day Weather Forecast

Advertisements
Track Severe Weather on mobile